sensor_id;sensor_type;location;lat;lon;timestamp;pressure;altitude;pressure_sealevel;temperature;humidity
48882;BME280;57063;51.406;-2.402;2023-08-12T00:01:47;100472.38;;;15.28;100.00
48882;BME280;57063;51.406;-2.402;2023-08-12T00:04:12;100473.09;;;15.30;100.00
48882;BME280;57063;51.406;-2.402;2023-08-12T00:06:40;100477.81;;;15.25;100.00
48882;BME280;57063;51.406;-2.402;2023-08-12T00:09:06;100464.44;;;15.18;100.00
48882;BME280;57063;51.406;-2.402;2023-08-12T00:11:33;100464.69;;;15.15;100.00
48882;BME280;57063;51.406;-2.402;2023-08-12T00:13:58;100462.53;;;15.09;100.00
48882;BME280;57063;51.406;-2.402;2023-08-12T00:16:23;100467.19;;;15.17;100.00
48882;BME280;57063;51.406;-2.402;2023-08-12T00:18:49;100465.28;;;15.19;100.00
48882;BME280;57063;51.406;-2.402;2023-08-12T00:21:14;100462.31;;;15.24;100.00
48882;BME280;57063;51.406;-2.402;2023-08-12T00:23:40;100457.00;;;15.14;100.00
48882;BME280;57063;51.406;-2.402;2023-08-12T00:26:07;100451.09;;;15.23;100.00
48882;BME280;57063;51.406;-2.402;2023-08-12T00:28:33;100458.31;;;15.19;100.00
48882;BME280;57063;51.406;-2.402;2023-08-12T00:30:58;100460.31;;;15.27;100.00
48882;BME280;57063;51.406;-2.402;2023-08-12T00:33:24;100454.16;;;15.28;100.00
48882;BME280;57063;51.406;-2.402;2023-08-12T00:35:49;100452.88;;;15.23;100.00
48882;BME280;57063;51.406;-2.402;2023-08-12T00:38:15;100455.00;;;15.29;100.00
48882;BME280;57063;51.406;-2.402;2023-08-12T00:40:40;100444.00;;;15.25;100.00
48882;BME280;57063;51.406;-2.402;2023-08-12T00:43:05;100444.13;;;15.24;100.00
48882;BME280;57063;51.406;-2.402;2023-08-12T00:45:31;100448.84;;;15.18;100.00
48882;BME280;57063;51.406;-2.402;2023-08-12T00:47:57;100433.50;;;15.15;100.00
48882;BME280;57063;51.406;-2.402;2023-08-12T00:50:23;100436.66;;;15.19;100.00
48882;BME280;57063;51.406;-2.402;2023-08-12T00:52:49;100437.63;;;15.18;100.00
48882;BME280;57063;51.406;-2.402;2023-08-12T00:55:15;100435.50;;;15.23;100.00
48882;BME280;57063;51.406;-2.402;2023-08-12T00:57:40;100434.19;;;15.29;100.00
48882;BME280;57063;51.406;-2.402;2023-08-12T01:00:07;100423.09;;;15.15;100.00
48882;BME280;57063;51.406;-2.402;2023-08-12T01:02:33;100420.59;;;15.14;100.00
48882;BME280;57063;51.406;-2.402;2023-08-12T01:04:58;100415.53;;;15.12;100.00
48882;BME280;57063;51.406;-2.402;2023-08-12T01:07:24;100413.75;;;15.13;100.00
48882;BME280;57063;51.406;-2.402;2023-08-12T01:09:49;100413.50;;;15.16;100.00
48882;BME280;57063;51.406;-2.402;2023-08-12T01:12:27;100413.75;;;15.13;100.00
48882;BME280;57063;51.406;-2.402;2023-08-12T01:15:13;100397.94;;;15.05;100.00
48882;BME280;57063;51.406;-2.402;2023-08-12T01:17:42;100402.88;;;15.08;100.00
48882;BME280;57063;51.406;-2.402;2023-08-12T01:20:08;100397.44;;;14.99;100.00
48882;BME280;57063;51.406;-2.402;2023-08-12T01:22:37;100395.78;;;14.98;100.00
48882;BME280;57063;51.406;-2.402;2023-08-12T01:25:06;100388.59;;;15.02;100.00
48882;BME280;57063;51.406;-2.402;2023-08-12T01:27:32;100392.34;;;15.09;100.00
48882;BME280;57063;51.406;-2.402;2023-08-12T01:29:58;100387.03;;;14.99;100.00
48882;BME280;57063;51.406;-2.402;2023-08-12T01:32:25;100396.03;;;14.95;100.00
48882;BME280;57063;51.406;-2.402;2023-08-12T01:35:03;100390.34;;;15.02;100.00
48882;BME280;57063;51.406;-2.402;2023-08-12T01:37:31;100394.03;;;14.88;100.00
48882;BME280;57063;51.406;-2.402;2023-08-12T01:40:00;100392.97;;;14.90;100.00
48882;BME280;57063;51.406;-2.402;2023-08-12T01:42:26;100395.09;;;14.85;100.00
48882;BME280;57063;51.406;-2.402;2023-08-12T01:44:53;100385.28;;;14.89;100.00
48882;BME280;57063;51.406;-2.402;2023-08-12T01:47:19;100393.56;;;14.83;100.00
48882;BME280;57063;51.406;-2.402;2023-08-12T01:49:44;100388.59;;;14.91;100.00
48882;BME280;57063;51.406;-2.402;2023-08-12T01:52:09;100384.22;;;14.91;100.00
48882;BME280;57063;51.406;-2.402;2023-08-12T01:54:35;100389.88;;;14.85;100.00
48882;BME280;57063;51.406;-2.402;2023-08-12T01:57:04;100381.84;;;14.88;100.00
48882;BME280;57063;51.406;-2.402;2023-08-12T01:59:36;100381.25;;;14.96;100.00
48882;BME280;57063;51.406;-2.402;2023-08-12T02:02:02;100378.19;;;14.91;100.00
48882;BME280;57063;51.406;-2.402;2023-08-12T02:04:28;100374.50;;;14.82;100.00
48882;BME280;57063;51.406;-2.402;2023-08-12T02:06:54;100374.28;;;14.85;100.00
48882;BME280;57063;51.406;-2.402;2023-08-12T02:09:20;100381.72;;;14.90;100.00
48882;BME280;57063;51.406;-2.402;2023-08-12T02:11:45;100368.16;;;14.97;100.00
48882;BME280;57063;51.406;-2.402;2023-08-12T02:14:10;100378.63;;;14.85;100.00
48882;BME280;57063;51.406;-2.402;2023-08-12T02:16:36;100380.31;;;14.86;100.00
48882;BME280;57063;51.406;-2.402;2023-08-12T02:19:02;100371.44;;;14.77;100.00
48882;BME280;57063;51.406;-2.402;2023-08-12T02:21:27;100367.06;;;14.77;100.00
48882;BME280;57063;51.406;-2.402;2023-08-12T02:23:52;100369.56;;;14.79;100.00
48882;BME280;57063;51.406;-2.402;2023-08-12T02:26:18;100367.44;;;14.84;100.00
48882;BME280;57063;51.406;-2.402;2023-08-12T02:28:43;100369.56;;;14.79;100.00
48882;BME280;57063;51.406;-2.402;2023-08-12T02:31:09;100357.63;;;14.76;100.00
48882;BME280;57063;51.406;-2.402;2023-08-12T02:33:34;100357.38;;;14.68;100.00
48882;BME280;57063;51.406;-2.402;2023-08-12T02:35:59;100354.06;;;14.66;100.00
48882;BME280;57063;51.406;-2.402;2023-08-12T02:38:25;100356.44;;;14.69;100.00
48882;BME280;57063;51.406;-2.402;2023-08-12T02:40:50;100360.19;;;14.65;100.00
48882;BME280;57063;51.406;-2.402;2023-08-12T02:43:19;100347.44;;;14.62;100.00
48882;BME280;57063;51.406;-2.402;2023-08-12T02:45:44;100351.13;;;14.71;100.00
48882;BME280;57063;51.406;-2.402;2023-08-12T02:48:10;100350.53;;;14.67;100.00
48882;BME280;57063;51.406;-2.402;2023-08-12T02:50:36;100351.59;;;14.65;100.00
48882;BME280;57063;51.406;-2.402;2023-08-12T02:53:02;100347.69;;;14.59;100.00
48882;BME280;57063;51.406;-2.402;2023-08-12T02:55:27;100343.94;;;14.63;100.00
48882;BME280;57063;51.406;-2.402;2023-08-12T02:57:53;100343.06;;;14.63;100.00
48882;BME280;57063;51.406;-2.402;2023-08-12T03:00:18;100343.31;;;14.60;100.00
48882;BME280;57063;51.406;-2.402;2023-08-12T03:02:44;100340.97;;;14.57;100.00
48882;BME280;57063;51.406;-2.402;2023-08-12T03:05:09;100334.22;;;14.65;100.00
48882;BME280;57063;51.406;-2.402;2023-08-12T03:07:35;100327.97;;;14.68;100.00
48882;BME280;57063;51.406;-2.402;2023-08-12T03:10:00;100330.22;;;14.61;100.00
48882;BME280;57063;51.406;-2.402;2023-08-12T03:12:26;100325.84;;;14.62;100.00
48882;BME280;57063;51.406;-2.402;2023-08-12T03:15:01;100324.22;;;14.61;100.00
48882;BME280;57063;51.406;-2.402;2023-08-12T03:17:30;100318.53;;;14.78;100.00
48882;BME280;57063;51.406;-2.402;2023-08-12T03:19:57;100316.66;;;14.69;100.00
48882;BME280;57063;51.406;-2.402;2023-08-12T03:22:24;100316.16;;;14.75;100.00
48882;BME280;57063;51.406;-2.402;2023-08-12T03:24:49;100314.41;;;14.75;100.00
48882;BME280;57063;51.406;-2.402;2023-08-12T03:27:15;100310.97;;;14.64;100.00
48882;BME280;57063;51.406;-2.402;2023-08-12T03:29:40;100309.19;;;14.64;100.00
48882;BME280;57063;51.406;-2.402;2023-08-12T03:32:06;100302.69;;;14.70;100.00
48882;BME280;57063;51.406;-2.402;2023-08-12T03:34:31;100303.06;;;14.76;100.00
48882;BME280;57063;51.406;-2.402;2023-08-12T03:36:56;100303.16;;;14.75;100.00
48882;BME280;57063;51.406;-2.402;2023-08-12T03:39:22;100296.34;;;14.74;100.00
48882;BME280;57063;51.406;-2.402;2023-08-12T03:41:47;100299.41;;;14.79;100.00
48882;BME280;57063;51.406;-2.402;2023-08-12T03:44:15;100292.91;;;14.73;100.00
48882;BME280;57063;51.406;-2.402;2023-08-12T03:46:40;100294.69;;;14.73;100.00
48882;BME280;57063;51.406;-2.402;2023-08-12T03:49:06;100289.59;;;14.71;100.00
48882;BME280;57063;51.406;-2.402;2023-08-12T03:51:31;100281.69;;;14.73;100.00
48882;BME280;57063;51.406;-2.402;2023-08-12T03:53:57;100281.47;;;14.76;100.00
48882;BME280;57063;51.406;-2.402;2023-08-12T03:56:23;100282.06;;;14.68;100.00
48882;BME280;57063;51.406;-2.402;2023-08-12T03:58:48;100268.94;;;14.81;100.00
48882;BME280;57063;51.406;-2.402;2023-08-12T04:01:13;100279.22;;;14.83;100.00
48882;BME280;57063;51.406;-2.402;2023-08-12T04:03:39;100270.81;;;14.79;100.00
48882;BME280;57063;51.406;-2.402;2023-08-12T04:06:04;100266.34;;;14.81;100.00
48882;BME280;57063;51.406;-2.402;2023-08-12T04:08:29;100268.56;;;14.74;100.00
48882;BME280;57063;51.406;-2.402;2023-08-12T04:10:57;100273.31;;;14.81;100.00
48882;BME280;57063;51.406;-2.402;2023-08-12T04:13:22;100272.25;;;14.83;100.00
48882;BME280;57063;51.406;-2.402;2023-08-12T04:15:49;100274.72;;;14.85;100.00
48882;BME280;57063;51.406;-2.402;2023-08-12T04:18:15;100273.41;;;14.68;100.00
48882;BME280;57063;51.406;-2.402;2023-08-12T04:20:40;100273.19;;;14.71;100.00
48882;BME280;57063;51.406;-2.402;2023-08-12T04:23:06;100269.53;;;14.73;100.00
48882;BME280;57063;51.406;-2.402;2023-08-12T04:25:31;100268.13;;;14.81;100.00
48882;BME280;57063;51.406;-2.402;2023-08-12T04:27:56;100269.88;;;14.80;100.00
48882;BME280;57063;51.406;-2.402;2023-08-12T04:30:23;100257.38;;;14.74;100.00
48882;BME280;57063;51.406;-2.402;2023-08-12T04:32:48;100262.81;;;14.71;100.00
48882;BME280;57063;51.406;-2.402;2023-08-12T04:35:14;100260.81;;;14.63;100.00
48882;BME280;57063;51.406;-2.402;2023-08-12T04:37:39;100261.63;;;14.64;100.00
48882;BME280;57063;51.406;-2.402;2023-08-12T04:40:05;100266.56;;;14.67;100.00
48882;BME280;57063;51.406;-2.402;2023-08-12T04:42:32;100265.16;;;14.63;100.00
48882;BME280;57063;51.406;-2.402;2023-08-12T04:44:58;100260.91;;;14.73;100.00
48882;BME280;57063;51.406;-2.402;2023-08-12T04:47:23;100272.94;;;14.63;100.00
48882;BME280;57063;51.406;-2.402;2023-08-12T04:49:48;100267.06;;;14.61;100.00
48882;BME280;57063;51.406;-2.402;2023-08-12T04:52:14;100263.50;;;14.62;100.00
48882;BME280;57063;51.406;-2.402;2023-08-12T04:54:39;100259.38;;;14.59;100.00
48882;BME280;57063;51.406;-2.402;2023-08-12T04:57:04;100265.75;;;14.66;100.00
48882;BME280;57063;51.406;-2.402;2023-08-12T04:59:31;100268.00;;;14.71;100.00
48882;BME280;57063;51.406;-2.402;2023-08-12T05:01:56;100263.88;;;14.68;100.00
48882;BME280;57063;51.406;-2.402;2023-08-12T05:04:21;100259.50;;;14.69;100.00
48882;BME280;57063;51.406;-2.402;2023-08-12T05:06:47;100250.28;;;14.76;100.00
48882;BME280;57063;51.406;-2.402;2023-08-12T05:09:13;100249.22;;;14.79;100.00
48882;BME280;57063;51.406;-2.402;2023-08-12T05:11:39;100254.97;;;14.82;100.00
48882;BME280;57063;51.406;-2.402;2023-08-12T05:14:04;100257.13;;;14.88;100.00
48882;BME280;57063;51.406;-2.402;2023-08-12T05:16:30;100250.13;;;14.89;100.00
48882;BME280;57063;51.406;-2.402;2023-08-12T05:18:55;100255.22;;;14.90;100.00
48882;BME280;57063;51.406;-2.402;2023-08-12T05:21:20;100259.34;;;14.93;100.00
48882;BME280;57063;51.406;-2.402;2023-08-12T05:23:46;100257.31;;;14.96;100.00
48882;BME280;57063;51.406;-2.402;2023-08-12T05:26:11;100259.31;;;15.04;100.00
48882;BME280;57063;51.406;-2.402;2023-08-12T05:28:36;100253.91;;;14.96;100.00
48882;BME280;57063;51.406;-2.402;2023-08-12T05:31:02;100253.06;;;15.07;100.00
48882;BME280;57063;51.406;-2.402;2023-08-12T05:33:27;100247.84;;;15.07;100.00
48882;BME280;57063;51.406;-2.402;2023-08-12T05:35:52;100248.09;;;15.04;100.00
48882;BME280;57063;51.406;-2.402;2023-08-12T05:38:18;100251.41;;;15.06;100.00
48882;BME280;57063;51.406;-2.402;2023-08-12T05:40:43;100248.56;;;15.09;100.00
48882;BME280;57063;51.406;-2.402;2023-08-12T05:43:08;100251.25;;;15.18;100.00
48882;BME280;57063;51.406;-2.402;2023-08-12T05:45:34;100253.16;;;15.16;100.00
48882;BME280;57063;51.406;-2.402;2023-08-12T05:47:59;100257.06;;;15.22;100.00
48882;BME280;57063;51.406;-2.402;2023-08-12T05:50:25;100243.09;;;15.23;100.00
48882;BME280;57063;51.406;-2.402;2023-08-12T05:52:50;100236.44;;;15.30;100.00
48882;BME280;57063;51.406;-2.402;2023-08-12T05:55:15;100240.66;;;15.43;100.00
48882;BME280;57063;51.406;-2.402;2023-08-12T05:57:41;100250.34;;;15.40;100.00
48882;BME280;57063;51.406;-2.402;2023-08-12T06:00:07;100245.75;;;15.44;100.00
48882;BME280;57063;51.406;-2.402;2023-08-12T06:02:32;100247.13;;;15.48;100.00
48882;BME280;57063;51.406;-2.402;2023-08-12T06:04:58;100245.13;;;15.52;100.00
48882;BME280;57063;51.406;-2.402;2023-08-12T06:07:23;100246.41;;;15.57;100.00
48882;BME280;57063;51.406;-2.402;2023-08-12T06:09:49;100236.00;;;15.57;100.00
48882;BME280;57063;51.406;-2.402;2023-08-12T06:12:26;100242.00;;;15.58;100.00
48882;BME280;57063;51.406;-2.402;2023-08-12T06:14:52;100238.47;;;15.59;100.00
48882;BME280;57063;51.406;-2.402;2023-08-12T06:17:18;100247.69;;;15.63;100.00
48882;BME280;57063;51.406;-2.402;2023-08-12T06:19:44;100243.03;;;15.67;100.00
48882;BME280;57063;51.406;-2.402;2023-08-12T06:22:10;100240.00;;;15.73;100.00
48882;BME280;57063;51.406;-2.402;2023-08-12T06:24:35;100232.63;;;15.78;100.00
48882;BME280;57063;51.406;-2.402;2023-08-12T06:27:00;100243.59;;;15.81;100.00
48882;BME280;57063;51.406;-2.402;2023-08-12T06:29:26;100242.88;;;15.79;100.00
48882;BME280;57063;51.406;-2.402;2023-08-12T06:31:52;100244.84;;;15.87;100.00
48882;BME280;57063;51.406;-2.402;2023-08-12T06:34:18;100251.19;;;15.94;100.00
48882;BME280;57063;51.406;-2.402;2023-08-12T06:36:43;100247.97;;;16.02;100.00
48882;BME280;57063;51.406;-2.402;2023-08-12T06:39:08;100257.00;;;15.98;100.00
48882;BME280;57063;51.406;-2.402;2023-08-12T06:41:34;100254.78;;;16.14;100.00
48882;BME280;57063;51.406;-2.402;2023-08-12T06:43:59;100250.94;;;16.18;100.00
48882;BME280;57063;51.406;-2.402;2023-08-12T06:46:26;100247.84;;;16.03;100.00
48882;BME280;57063;51.406;-2.402;2023-08-12T06:48:51;100261.34;;;16.18;100.00
48882;BME280;57063;51.406;-2.402;2023-08-12T06:51:16;100258.31;;;16.34;100.00
48882;BME280;57063;51.406;-2.402;2023-08-12T06:53:42;100247.63;;;16.16;100.00
48882;BME280;57063;51.406;-2.402;2023-08-12T06:56:07;100260.25;;;16.42;100.00
48882;BME280;57063;51.406;-2.402;2023-08-12T06:58:32;100258.47;;;16.42;100.00
48882;BME280;57063;51.406;-2.402;2023-08-12T07:00:58;100267.69;;;16.25;100.00
48882;BME280;57063;51.406;-2.402;2023-08-12T07:03:24;100258.13;;;16.05;100.00
48882;BME280;57063;51.406;-2.402;2023-08-12T07:05:52;100259.22;;;16.02;100.00
48882;BME280;57063;51.406;-2.402;2023-08-12T07:08:18;100253.91;;;16.14;100.00
48882;BME280;57063;51.406;-2.402;2023-08-12T07:10:43;100257.16;;;16.06;100.00
48882;BME280;57063;51.406;-2.402;2023-08-12T07:13:08;100245.88;;;15.96;100.00
48882;BME280;57063;51.406;-2.402;2023-08-12T07:15:34;100239.81;;;16.37;100.00
48882;BME280;57063;51.406;-2.402;2023-08-12T07:17:59;100231.75;;;16.50;100.00
48882;BME280;57063;51.406;-2.402;2023-08-12T07:20:25;100238.00;;;16.38;100.00
48882;BME280;57063;51.406;-2.402;2023-08-12T07:22:51;100236.47;;;17.26;100.00
48882;BME280;57063;51.406;-2.402;2023-08-12T07:25:16;100233.16;;;21.37;89.27
48882;BME280;57063;51.406;-2.402;2023-08-12T07:27:42;100239.59;;;22.56;73.71
48882;BME280;57063;51.406;-2.402;2023-08-12T07:30:07;100244.25;;;23.78;67.93
48882;BME280;57063;51.406;-2.402;2023-08-12T07:32:33;100245.31;;;24.87;63.32
48882;BME280;57063;51.406;-2.402;2023-08-12T07:34:59;100257.44;;;26.11;57.67
48882;BME280;57063;51.406;-2.402;2023-08-12T07:37:25;100249.91;;;26.49;55.54
48882;BME280;57063;51.406;-2.402;2023-08-12T07:39:50;100252.53;;;26.08;55.66
48882;BME280;57063;51.406;-2.402;2023-08-12T07:42:16;100248.59;;;24.89;58.65
48882;BME280;57063;51.406;-2.402;2023-08-12T07:44:41;100248.97;;;25.23;59.56
48882;BME280;57063;51.406;-2.402;2023-08-12T07:47:07;100244.19;;;25.33;58.11
48882;BME280;57063;51.406;-2.402;2023-08-12T07:49:32;100249.25;;;21.84;69.10
48882;BME280;57063;51.406;-2.402;2023-08-12T07:51:57;100237.84;;;22.32;70.81
48882;BME280;57063;51.406;-2.402;2023-08-12T07:54:23;100233.94;;;23.68;62.77
48882;BME280;57063;51.406;-2.402;2023-08-12T07:56:48;100235.13;;;22.01;67.24
48882;BME280;57063;51.406;-2.402;2023-08-12T07:59:14;100237.13;;;21.50;72.64
48882;BME280;57063;51.406;-2.402;2023-08-12T08:01:39;100241.06;;;20.70;73.95
48882;BME280;57063;51.406;-2.402;2023-08-12T08:04:05;100243.25;;;20.91;75.90
48882;BME280;57063;51.406;-2.402;2023-08-12T08:06:31;100249.88;;;20.61;75.86
48882;BME280;57063;51.406;-2.402;2023-08-12T08:11:35;100231.97;;;19.96;78.66
48882;BME280;57063;51.406;-2.402;2023-08-12T08:14:00;100230.69;;;20.00;80.46
48882;BME280;57063;51.406;-2.402;2023-08-12T08:16:26;100238.44;;;19.84;80.89
48882;BME280;57063;51.406;-2.402;2023-08-12T08:18:51;100234.66;;;19.42;81.22
48882;BME280;57063;51.406;-2.402;2023-08-12T08:21:20;100229.88;;;19.56;81.07
48882;BME280;57063;51.406;-2.402;2023-08-12T08:24:08;100230.31;;;19.69;80.84
48882;BME280;57063;51.406;-2.402;2023-08-12T08:26:38;100239.38;;;19.39;81.73
48882;BME280;57063;51.406;-2.402;2023-08-12T08:29:12;100243.41;;;19.15;83.33
48882;BME280;57063;51.406;-2.402;2023-08-12T08:31:38;100247.00;;;18.87;84.96
48882;BME280;57063;51.406;-2.402;2023-08-12T08:34:04;100236.59;;;18.77;86.91
48882;BME280;57063;51.406;-2.402;2023-08-12T08:36:29;100255.78;;;18.58;86.80
48882;BME280;57063;51.406;-2.402;2023-08-12T08:38:55;100257.63;;;18.48;90.39
48882;BME280;57063;51.406;-2.402;2023-08-12T08:41:21;100253.84;;;18.60;91.90
48882;BME280;57063;51.406;-2.402;2023-08-12T08:43:47;100246.94;;;18.41;93.23
48882;BME280;57063;51.406;-2.402;2023-08-12T08:46:15;100241.69;;;18.51;93.84
48882;BME280;57063;51.406;-2.402;2023-08-12T08:48:42;100241.78;;;18.87;89.03
48882;BME280;57063;51.406;-2.402;2023-08-12T08:51:08;100236.53;;;19.32;86.14
48882;BME280;57063;51.406;-2.402;2023-08-12T08:53:37;100244.13;;;19.61;83.69
48882;BME280;57063;51.406;-2.402;2023-08-12T08:56:05;100244.00;;;20.07;80.24
48882;BME280;57063;51.406;-2.402;2023-08-12T08:58:30;100246.00;;;21.49;72.12
48882;BME280;57063;51.406;-2.402;2023-08-12T09:00:56;100245.91;;;22.31;68.87
48882;BME280;57063;51.406;-2.402;2023-08-12T09:03:22;100258.75;;;22.09;67.28
48882;BME280;57063;51.406;-2.402;2023-08-12T09:05:49;100247.63;;;21.58;68.61
48882;BME280;57063;51.406;-2.402;2023-08-12T09:08:15;100256.75;;;21.13;68.91
48882;BME280;57063;51.406;-2.402;2023-08-12T09:10:42;100253.97;;;21.31;69.29
48882;BME280;57063;51.406;-2.402;2023-08-12T09:13:08;100249.91;;;21.36;70.67
48882;BME280;57063;51.406;-2.402;2023-08-12T09:15:36;100248.75;;;20.64;72.92
48882;BME280;57063;51.406;-2.402;2023-08-12T09:18:01;100249.72;;;20.63;73.27
48882;BME280;57063;51.406;-2.402;2023-08-12T09:20:29;100252.19;;;20.38;75.23
48882;BME280;57063;51.406;-2.402;2023-08-12T09:22:58;100246.06;;;19.95;78.34
48882;BME280;57063;51.406;-2.402;2023-08-12T09:25:27;100249.09;;;20.08;77.77
48882;BME280;57063;51.406;-2.402;2023-08-12T09:27:55;100257.44;;;19.86;79.78
48882;BME280;57063;51.406;-2.402;2023-08-12T09:30:23;100259.19;;;20.03;78.94
48882;BME280;57063;51.406;-2.402;2023-08-12T09:33:02;100258.81;;;19.54;80.21
48882;BME280;57063;51.406;-2.402;2023-08-12T09:35:33;100258.88;;;20.06;79.32
48882;BME280;57063;51.406;-2.402;2023-08-12T09:38:01;100266.84;;;19.97;79.06
48882;BME280;57063;51.406;-2.402;2023-08-12T09:40:26;100258.06;;;20.06;77.34
48882;BME280;57063;51.406;-2.402;2023-08-12T09:42:52;100254.31;;;20.61;76.25
48882;BME280;57063;51.406;-2.402;2023-08-12T09:45:17;100253.66;;;20.67;75.25
48882;BME280;57063;51.406;-2.402;2023-08-12T09:47:45;100245.22;;;20.89;73.42
48882;BME280;57063;51.406;-2.402;2023-08-12T09:50:11;100250.31;;;20.99;71.89
48882;BME280;57063;51.406;-2.402;2023-08-12T09:52:39;100242.47;;;21.07;71.53
48882;BME280;57063;51.406;-2.402;2023-08-12T09:55:05;100239.66;;;20.92;71.42
48882;BME280;57063;51.406;-2.402;2023-08-12T09:57:33;100251.31;;;20.90;70.71
48882;BME280;57063;51.406;-2.402;2023-08-12T10:00:00;100242.28;;;21.01;70.82
48882;BME280;57063;51.406;-2.402;2023-08-12T10:02:26;100251.34;;;21.23;69.90
48882;BME280;57063;51.406;-2.402;2023-08-12T10:04:53;100251.69;;;21.20;68.86
48882;BME280;57063;51.406;-2.402;2023-08-12T10:07:22;100245.63;;;22.01;66.14
48882;BME280;57063;51.406;-2.402;2023-08-12T10:09:48;100245.63;;;22.01;65.40
48882;BME280;57063;51.406;-2.402;2023-08-12T10:12:15;100256.16;;;21.85;64.88
48882;BME280;57063;51.406;-2.402;2023-08-12T10:14:41;100250.59;;;21.47;66.92
48882;BME280;57063;51.406;-2.402;2023-08-12T10:17:08;100245.16;;;21.81;65.71
48882;BME280;57063;51.406;-2.402;2023-08-12T10:19:35;100240.88;;;22.05;63.72
48882;BME280;57063;51.406;-2.402;2023-08-12T10:22:02;100249.59;;;21.89;65.04
48882;BME280;57063;51.406;-2.402;2023-08-12T10:24:29;100246.31;;;21.62;64.15
48882;BME280;57063;51.406;-2.402;2023-08-12T10:26:55;100236.94;;;21.27;64.41
48882;BME280;57063;51.406;-2.402;2023-08-12T10:29:23;100235.09;;;21.03;65.52
48882;BME280;57063;51.406;-2.402;2023-08-12T10:31:50;100243.47;;;21.14;65.28
48882;BME280;57063;51.406;-2.402;2023-08-12T10:34:22;100249.53;;;21.23;64.97
48882;BME280;57063;51.406;-2.402;2023-08-12T10:36:53;100235.16;;;21.52;63.50
48882;BME280;57063;51.406;-2.402;2023-08-12T10:39:24;100239.59;;;21.76;63.03
48882;BME280;57063;51.406;-2.402;2023-08-12T10:41:51;100236.78;;;22.02;64.09
48882;BME280;57063;51.406;-2.402;2023-08-12T10:44:20;100231.16;;;21.97;63.38
48882;BME280;57063;51.406;-2.402;2023-08-12T10:46:50;100239.09;;;21.64;64.08
48882;BME280;57063;51.406;-2.402;2023-08-12T10:49:21;100239.13;;;21.56;64.77
48882;BME280;57063;51.406;-2.402;2023-08-12T10:51:54;100242.03;;;21.36;64.85
48882;BME280;57063;51.406;-2.402;2023-08-12T10:54:26;100238.28;;;21.47;65.63
48882;BME280;57063;51.406;-2.402;2023-08-12T10:57:08;100236.31;;;21.57;64.50
48882;BME280;57063;51.406;-2.402;2023-08-12T11:02:31;100230.06;;;21.50;63.16
48882;BME280;57063;51.406;-2.402;2023-08-12T11:05:07;100223.34;;;21.64;63.84
48882;BME280;57063;51.406;-2.402;2023-08-12T11:07:41;100222.63;;;22.03;62.84
48882;BME280;57063;51.406;-2.402;2023-08-12T11:10:16;100216.63;;;22.42;61.67
48882;BME280;57063;51.406;-2.402;2023-08-12T11:15:43;100219.91;;;21.80;62.17
48882;BME280;57063;51.406;-2.402;2023-08-12T11:18:16;100216.13;;;21.66;63.79
48882;BME280;57063;51.406;-2.402;2023-08-12T11:20:42;100220.72;;;21.64;63.87
48882;BME280;57063;51.406;-2.402;2023-08-12T11:23:09;100214.97;;;21.85;64.35
48882;BME280;57063;51.406;-2.402;2023-08-12T11:25:40;100218.44;;;21.61;63.14
48882;BME280;57063;51.406;-2.402;2023-08-12T11:28:07;100218.59;;;21.59;63.71
48882;BME280;57063;51.406;-2.402;2023-08-12T11:30:33;100214.78;;;21.95;64.09
48882;BME280;57063;51.406;-2.402;2023-08-12T11:32:59;100215.63;;;21.71;64.10
48882;BME280;57063;51.406;-2.402;2023-08-12T11:35:26;100223.63;;;21.94;63.94
48882;BME280;57063;51.406;-2.402;2023-08-12T11:37:53;100224.44;;;21.94;64.44
48882;BME280;57063;51.406;-2.402;2023-08-12T11:40:21;100233.69;;;21.57;67.34
48882;BME280;57063;51.406;-2.402;2023-08-12T11:42:48;100238.78;;;21.51;71.95
48882;BME280;57063;51.406;-2.402;2023-08-12T11:45:20;100245.78;;;21.26;75.79
48882;BME280;57063;51.406;-2.402;2023-08-12T11:47:46;100248.88;;;21.13;81.45
48882;BME280;57063;51.406;-2.402;2023-08-12T11:50:19;100254.06;;;20.88;81.45
48882;BME280;57063;51.406;-2.402;2023-08-12T11:52:45;100242.34;;;20.58;86.36
48882;BME280;57063;51.406;-2.402;2023-08-12T11:55:11;100239.31;;;20.53;92.06
48882;BME280;57063;51.406;-2.402;2023-08-12T11:57:39;100247.28;;;20.43;91.42
48882;BME280;57063;51.406;-2.402;2023-08-12T12:00:06;100243.31;;;20.65;90.86
48882;BME280;57063;51.406;-2.402;2023-08-12T12:02:47;100248.16;;;20.78;89.05
48882;BME280;57063;51.406;-2.402;2023-08-12T12:05:22;100248.41;;;20.67;87.28
48882;BME280;57063;51.406;-2.402;2023-08-12T12:07:49;100248.88;;;20.62;91.84
48882;BME280;57063;51.406;-2.402;2023-08-12T12:10:29;100245.88;;;20.83;89.67
48882;BME280;57063;51.406;-2.402;2023-08-12T12:12:56;100240.44;;;20.50;84.94
48882;BME280;57063;51.406;-2.402;2023-08-12T12:15:22;100239.06;;;20.64;86.17
48882;BME280;57063;51.406;-2.402;2023-08-12T12:17:49;100231.28;;;20.55;85.26
48882;BME280;57063;51.406;-2.402;2023-08-12T12:20:15;100237.31;;;20.81;89.21
48882;BME280;57063;51.406;-2.402;2023-08-12T12:22:43;100236.31;;;20.74;90.35
48882;BME280;57063;51.406;-2.402;2023-08-12T12:25:12;100240.28;;;20.78;86.83
48882;BME280;57063;51.406;-2.402;2023-08-12T12:27:39;100246.63;;;20.67;89.13
48882;BME280;57063;51.406;-2.402;2023-08-12T12:30:08;100240.88;;;20.38;89.67
48882;BME280;57063;51.406;-2.402;2023-08-12T12:32:34;100241.50;;;20.58;93.13
48882;BME280;57063;51.406;-2.402;2023-08-12T12:34:59;100230.13;;;20.83;93.99
48882;BME280;57063;51.406;-2.402;2023-08-12T12:37:25;100231.50;;;21.20;94.28
48882;BME280;57063;51.406;-2.402;2023-08-12T12:39:50;100224.31;;;21.55;88.81